sensor_id;sensor_type;location;lat;lon;timestamp;temperature;humidity
4596;DHT22;2310;49.978;8.742;2024-01-06T00:03:32;8.20;99.90
4596;DHT22;2310;49.978;8.742;2024-01-06T00:07:34;8.30;99.90
4596;DHT22;2310;49.978;8.742;2024-01-06T00:11:35;8.20;99.90
4596;DHT22;2310;49.978;8.742;2024-01-06T00:15:37;8.30;99.90
4596;DHT22;2310;49.978;8.742;2024-01-06T00:19:38;8.30;99.90
4596;DHT22;2310;49.978;8.742;2024-01-06T00:23:41;8.20;99.90
4596;DHT22;2310;49.978;8.742;2024-01-06T00:27:42;8.30;99.90
4596;DHT22;2310;49.978;8.742;2024-01-06T00:31:43;8.20;99.90
4596;DHT22;2310;49.978;8.742;2024-01-06T00:35:45;8.50;99.90
4596;DHT22;2310;49.978;8.742;2024-01-06T00:39:46;8.60;99.90
4596;DHT22;2310;49.978;8.742;2024-01-06T00:43:48;8.60;99.90
4596;DHT22;2310;49.978;8.742;2024-01-06T00:47:49;8.60;99.90
4596;DHT22;2310;49.978;8.742;2024-01-06T00:51:51;8.50;99.90
4596;DHT22;2310;49.978;8.742;2024-01-06T00:55:53;8.30;99.90
4596;DHT22;2310;49.978;8.742;2024-01-06T00:59:54;8.10;99.90
4596;DHT22;2310;49.978;8.742;2024-01-06T01:03:56;7.80;99.90
4596;DHT22;2310;49.978;8.742;2024-01-06T01:07:57;8.00;99.90
4596;DHT22;2310;49.978;8.742;2024-01-06T01:11:58;8.00;99.90
4596;DHT22;2310;49.978;8.742;2024-01-06T01:16:00;8.00;99.90
4596;DHT22;2310;49.978;8.742;2024-01-06T01:20:01;8.10;99.90
4596;DHT22;2310;49.978;8.742;2024-01-06T01:24:03;8.10;99.90
4596;DHT22;2310;49.978;8.742;2024-01-06T01:28:05;8.10;99.90
4596;DHT22;2310;49.978;8.742;2024-01-06T01:32:06;8.20;99.90
4596;DHT22;2310;49.978;8.742;2024-01-06T01:36:08;8.20;99.90
4596;DHT22;2310;49.978;8.742;2024-01-06T01:40:10;8.20;99.90
4596;DHT22;2310;49.978;8.742;2024-01-06T01:44:12;8.10;99.90
4596;DHT22;2310;49.978;8.742;2024-01-06T01:48:13;8.00;99.90
4596;DHT22;2310;49.978;8.742;2024-01-06T01:52:15;8.10;99.90
4596;DHT22;2310;49.978;8.742;2024-01-06T01:56:17;8.20;99.90
4596;DHT22;2310;49.978;8.742;2024-01-06T02:00:18;8.20;99.90
4596;DHT22;2310;49.978;8.742;2024-01-06T02:04:20;8.30;99.90
4596;DHT22;2310;49.978;8.742;2024-01-06T02:08:23;8.30;99.90
4596;DHT22;2310;49.978;8.742;2024-01-06T02:12:24;8.20;99.90
4596;DHT22;2310;49.978;8.742;2024-01-06T02:16:26;8.30;99.90
4596;DHT22;2310;49.978;8.742;2024-01-06T02:20:30;8.30;99.90
4596;DHT22;2310;49.978;8.742;2024-01-06T02:24:32;8.40;99.90
4596;DHT22;2310;49.978;8.742;2024-01-06T02:28:35;8.30;99.90
4596;DHT22;2310;49.978;8.742;2024-01-06T02:32:37;8.30;99.90
4596;DHT22;2310;49.978;8.742;2024-01-06T02:36:39;8.20;99.90
4596;DHT22;2310;49.978;8.742;2024-01-06T02:40:40;8.40;99.90
4596;DHT22;2310;49.978;8.742;2024-01-06T02:44:42;8.30;99.90
4596;DHT22;2310;49.978;8.742;2024-01-06T02:48:43;8.40;99.90
4596;DHT22;2310;49.978;8.742;2024-01-06T02:52:44;8.40;99.90
4596;DHT22;2310;49.978;8.742;2024-01-06T02:56:48;8.40;99.90
4596;DHT22;2310;49.978;8.742;2024-01-06T03:00:50;8.50;99.90
4596;DHT22;2310;49.978;8.742;2024-01-06T03:04:52;8.30;99.90
4596;DHT22;2310;49.978;8.742;2024-01-06T03:08:53;8.20;99.90
4596;DHT22;2310;49.978;8.742;2024-01-06T03:12:55;8.10;99.90
4596;DHT22;2310;49.978;8.742;2024-01-06T03:16:56;8.20;99.90
4596;DHT22;2310;49.978;8.742;2024-01-06T03:20:59;8.30;99.90
4596;DHT22;2310;49.978;8.742;2024-01-06T03:25:01;8.10;99.90
4596;DHT22;2310;49.978;8.742;2024-01-06T03:29:03;8.00;99.90
4596;DHT22;2310;49.978;8.742;2024-01-06T03:33:06;8.20;99.90
4596;DHT22;2310;49.978;8.742;2024-01-06T03:37:07;8.30;99.90
4596;DHT22;2310;49.978;8.742;2024-01-06T03:41:08;8.20;99.90
4596;DHT22;2310;49.978;8.742;2024-01-06T03:45:11;8.20;99.90
4596;DHT22;2310;49.978;8.742;2024-01-06T03:49:13;8.20;99.90
4596;DHT22;2310;49.978;8.742;2024-01-06T03:53:14;8.10;99.90
4596;DHT22;2310;49.978;8.742;2024-01-06T03:57:15;8.30;99.90
4596;DHT22;2310;49.978;8.742;2024-01-06T04:01:17;8.60;99.90
4596;DHT22;2310;49.978;8.742;2024-01-06T04:05:18;8.60;99.90
4596;DHT22;2310;49.978;8.742;2024-01-06T04:09:20;8.60;99.90
4596;DHT22;2310;49.978;8.742;2024-01-06T04:13:21;8.40;99.90
4596;DHT22;2310;49.978;8.742;2024-01-06T04:17:23;8.60;99.90
4596;DHT22;2310;49.978;8.742;2024-01-06T04:21:24;8.50;99.90
4596;DHT22;2310;49.978;8.742;2024-01-06T04:25:26;8.50;99.90
4596;DHT22;2310;49.978;8.742;2024-01-06T04:29:27;8.50;99.90
4596;DHT22;2310;49.978;8.742;2024-01-06T04:33:29;8.60;99.90
4596;DHT22;2310;49.978;8.742;2024-01-06T04:37:32;8.60;99.90
4596;DHT22;2310;49.978;8.742;2024-01-06T04:41:34;8.40;99.90
4596;DHT22;2310;49.978;8.742;2024-01-06T04:45:36;8.50;99.90
4596;DHT22;2310;49.978;8.742;2024-01-06T04:49:38;8.50;99.90
4596;DHT22;2310;49.978;8.742;2024-01-06T04:53:40;8.60;99.90
4596;DHT22;2310;49.978;8.742;2024-01-06T04:57:41;8.60;99.90
4596;DHT22;2310;49.978;8.742;2024-01-06T05:01:42;8.60;99.90
4596;DHT22;2310;49.978;8.742;2024-01-06T05:05:44;8.60;99.90
4596;DHT22;2310;49.978;8.742;2024-01-06T05:09:45;8.60;99.90
4596;DHT22;2310;49.978;8.742;2024-01-06T05:13:46;8.50;99.90
4596;DHT22;2310;49.978;8.742;2024-01-06T05:17:48;8.60;99.90
4596;DHT22;2310;49.978;8.742;2024-01-06T05:21:49;8.60;99.90
4596;DHT22;2310;49.978;8.742;2024-01-06T05:25:51;8.60;99.90
4596;DHT22;2310;49.978;8.742;2024-01-06T05:29:52;8.60;99.90
4596;DHT22;2310;49.978;8.742;2024-01-06T05:33:54;8.70;99.90
4596;DHT22;2310;49.978;8.742;2024-01-06T05:37:55;8.50;99.90
4596;DHT22;2310;49.978;8.742;2024-01-06T05:41:57;8.40;99.90
4596;DHT22;2310;49.978;8.742;2024-01-06T05:45:58;8.30;99.90
4596;DHT22;2310;49.978;8.742;2024-01-06T05:50:00;8.10;99.90
4596;DHT22;2310;49.978;8.742;2024-01-06T05:54:04;8.00;99.90
4596;DHT22;2310;49.978;8.742;2024-01-06T05:58:06;8.10;99.90
4596;DHT22;2310;49.978;8.742;2024-01-06T06:02:07;8.30;99.90
4596;DHT22;2310;49.978;8.742;2024-01-06T06:06:08;8.40;99.90
4596;DHT22;2310;49.978;8.742;2024-01-06T06:10:11;8.20;99.90
4596;DHT22;2310;49.978;8.742;2024-01-06T06:14:13;8.10;99.90
4596;DHT22;2310;49.978;8.742;2024-01-06T06:18:14;8.10;99.90
4596;DHT22;2310;49.978;8.742;2024-01-06T06:22:16;8.10;99.90
4596;DHT22;2310;49.978;8.742;2024-01-06T06:26:17;8.30;99.90
4596;DHT22;2310;49.978;8.742;2024-01-06T06:30:18;8.30;99.90
4596;DHT22;2310;49.978;8.742;2024-01-06T06:34:20;8.30;99.90
4596;DHT22;2310;49.978;8.742;2024-01-06T06:38:25;8.10;99.90
4596;DHT22;2310;49.978;8.742;2024-01-06T06:42:29;8.40;99.90
4596;DHT22;2310;49.978;8.742;2024-01-06T06:46:31;8.50;99.90
4596;DHT22;2310;49.978;8.742;2024-01-06T06:50:32;8.40;99.90
4596;DHT22;2310;49.978;8.742;2024-01-06T06:54:34;8.40;99.90
4596;DHT22;2310;49.978;8.742;2024-01-06T06:58:35;8.30;99.90
4596;DHT22;2310;49.978;8.742;2024-01-06T07:02:36;8.40;99.90
4596;DHT22;2310;49.978;8.742;2024-01-06T07:06:38;8.50;99.90
4596;DHT22;2310;49.978;8.742;2024-01-06T07:10:39;8.50;99.90
4596;DHT22;2310;49.978;8.742;2024-01-06T07:14:40;8.60;99.90
4596;DHT22;2310;49.978;8.742;2024-01-06T07:18:42;8.60;99.90
4596;DHT22;2310;49.978;8.742;2024-01-06T07:22:43;8.60;99.90
4596;DHT22;2310;49.978;8.742;2024-01-06T07:26:45;8.70;99.90
4596;DHT22;2310;49.978;8.742;2024-01-06T07:30:47;8.60;99.90
4596;DHT22;2310;49.978;8.742;2024-01-06T07:34:49;8.50;99.90
4596;DHT22;2310;49.978;8.742;2024-01-06T07:38:50;8.30;99.90
4596;DHT22;2310;49.978;8.742;2024-01-06T07:42:54;8.40;99.90
4596;DHT22;2310;49.978;8.742;2024-01-06T07:46:55;8.40;99.90
4596;DHT22;2310;49.978;8.742;2024-01-06T07:50:56;8.20;99.90
4596;DHT22;2310;49.978;8.742;2024-01-06T07:54:58;8.30;99.90
4596;DHT22;2310;49.978;8.742;2024-01-06T07:58:59;8.30;99.90
4596;DHT22;2310;49.978;8.742;2024-01-06T08:03:03;8.30;99.90
4596;DHT22;2310;49.978;8.742;2024-01-06T08:07:06;8.50;99.90
4596;DHT22;2310;49.978;8.742;2024-01-06T08:11:07;8.60;99.90
4596;DHT22;2310;49.978;8.742;2024-01-06T08:15:09;8.40;99.90
4596;DHT22;2310;49.978;8.742;2024-01-06T08:19:10;8.60;99.90
4596;DHT22;2310;49.978;8.742;2024-01-06T08:23:12;8.70;99.90
4596;DHT22;2310;49.978;8.742;2024-01-06T08:27:13;8.70;99.90
4596;DHT22;2310;49.978;8.742;2024-01-06T08:31:15;8.80;99.90
4596;DHT22;2310;49.978;8.742;2024-01-06T08:35:17;8.70;99.90
4596;DHT22;2310;49.978;8.742;2024-01-06T08:39:18;8.80;99.90
4596;DHT22;2310;49.978;8.742;2024-01-06T08:43:20;8.80;99.90
4596;DHT22;2310;49.978;8.742;2024-01-06T08:47:21;8.80;99.90
4596;DHT22;2310;49.978;8.742;2024-01-06T08:51:22;8.90;99.90
4596;DHT22;2310;49.978;8.742;2024-01-06T08:55:25;9.10;99.90
4596;DHT22;2310;49.978;8.742;2024-01-06T08:59:26;8.90;99.90
4596;DHT22;2310;49.978;8.742;2024-01-06T09:03:28;8.80;99.90
4596;DHT22;2310;49.978;8.742;2024-01-06T09:07:29;9.00;99.90
4596;DHT22;2310;49.978;8.742;2024-01-06T09:11:32;9.00;99.90
4596;DHT22;2310;49.978;8.742;2024-01-06T09:15:34;8.90;99.90
4596;DHT22;2310;49.978;8.742;2024-01-06T09:19:35;8.80;99.90
4596;DHT22;2310;49.978;8.742;2024-01-06T09:23:37;8.90;99.90
4596;DHT22;2310;49.978;8.742;2024-01-06T09:27:38;8.90;99.90
4596;DHT22;2310;49.978;8.742;2024-01-06T09:31:39;9.10;99.90
4596;DHT22;2310;49.978;8.742;2024-01-06T09:35:42;9.10;99.90
4596;DHT22;2310;49.978;8.742;2024-01-06T09:39:45;9.20;99.90
4596;DHT22;2310;49.978;8.742;2024-01-06T09:43:46;8.90;99.90
4596;DHT22;2310;49.978;8.742;2024-01-06T09:47:51;8.90;99.90
4596;DHT22;2310;49.978;8.742;2024-01-06T09:51:56;9.10;99.90
4596;DHT22;2310;49.978;8.742;2024-01-06T09:55:58;9.30;99.90
4596;DHT22;2310;49.978;8.742;2024-01-06T10:00:00;9.60;99.90
4596;DHT22;2310;49.978;8.742;2024-01-06T10:04:05;9.50;99.90
4596;DHT22;2310;49.978;8.742;2024-01-06T10:08:07;9.20;99.90
4596;DHT22;2310;49.978;8.742;2024-01-06T10:12:09;9.40;99.90
4596;DHT22;2310;49.978;8.742;2024-01-06T10:16:11;9.30;99.90
4596;DHT22;2310;49.978;8.742;2024-01-06T10:20:13;9.20;99.90
4596;DHT22;2310;49.978;8.742;2024-01-06T10:24:19;9.20;99.90
4596;DHT22;2310;49.978;8.742;2024-01-06T10:28:22;8.90;99.90
4596;DHT22;2310;49.978;8.742;2024-01-06T10:32:24;9.20;99.90
4596;DHT22;2310;49.978;8.742;2024-01-06T10:36:28;9.10;99.90
4596;DHT22;2310;49.978;8.742;2024-01-06T10:40:29;9.00;99.90
4596;DHT22;2310;49.978;8.742;2024-01-06T10:44:31;9.20;99.90
4596;DHT22;2310;49.978;8.742;2024-01-06T10:48:35;9.20;99.90
4596;DHT22;2310;49.978;8.742;2024-01-06T10:52:38;9.40;99.90
4596;DHT22;2310;49.978;8.742;2024-01-06T10:56:41;9.50;99.90
4596;DHT22;2310;49.978;8.742;2024-01-06T11:00:43;9.50;99.90
4596;DHT22;2310;49.978;8.742;2024-01-06T11:04:48;9.40;99.90
4596;DHT22;2310;49.978;8.742;2024-01-06T11:13:08;9.50;99.90
4596;DHT22;2310;49.978;8.742;2024-01-06T11:17:09;9.50;99.90
4596;DHT22;2310;49.978;8.742;2024-01-06T11:25:22;9.90;99.90
4596;DHT22;2310;49.978;8.742;2024-01-06T11:29:23;10.10;99.90
4596;DHT22;2310;49.978;8.742;2024-01-06T11:33:25;10.10;99.90
4596;DHT22;2310;49.978;8.742;2024-01-06T11:41:51;11.30;99.90
4596;DHT22;2310;49.978;8.742;2024-01-06T11:45:54;12.10;99.90
4596;DHT22;2310;49.978;8.742;2024-01-06T11:49:59;12.30;99.90
4596;DHT22;2310;49.978;8.742;2024-01-06T11:54:01;12.10;99.90
4596;DHT22;2310;49.978;8.742;2024-01-06T11:58:02;11.80;99.90
4596;DHT22;2310;49.978;8.742;2024-01-06T12:02:04;11.60;99.90
4596;DHT22;2310;49.978;8.742;2024-01-06T12:06:07;11.50;99.90
4596;DHT22;2310;49.978;8.742;2024-01-06T12:10:09;11.20;99.90
4596;DHT22;2310;49.978;8.742;2024-01-06T12:14:11;11.00;99.90
4596;DHT22;2310;49.978;8.742;2024-01-06T12:18:14;11.10;99.90
4596;DHT22;2310;49.978;8.742;2024-01-06T12:22:16;11.00;99.90
4596;DHT22;2310;49.978;8.742;2024-01-06T12:26:18;11.10;99.90
4596;DHT22;2310;49.978;8.742;2024-01-06T12:30:22;11.10;99.90
4596;DHT22;2310;49.978;8.742;2024-01-06T12:34:24;11.10;99.90
4596;DHT22;2310;49.978;8.742;2024-01-06T12:38:26;11.00;99.90
4596;DHT22;2310;49.978;8.742;2024-01-06T12:42:28;11.20;99.90
4596;DHT22;2310;49.978;8.742;2024-01-06T12:46:30;10.80;99.90
4596;DHT22;2310;49.978;8.742;2024-01-06T12:50:31;10.90;99.90
4596;DHT22;2310;49.978;8.742;2024-01-06T12:54:33;10.80;99.90
4596;DHT22;2310;49.978;8.742;2024-01-06T12:58:34;10.90;99.90
4596;DHT22;2310;49.978;8.742;2024-01-06T13:02:37;10.90;99.90
4596;DHT22;2310;49.978;8.742;2024-01-06T13:06:38;11.00;99.90
4596;DHT22;2310;49.978;8.742;2024-01-06T13:10:41;11.10;99.90
4596;DHT22;2310;49.978;8.742;2024-01-06T13:14:42;11.10;99.90
4596;DHT22;2310;49.978;8.742;2024-01-06T13:18:45;11.10;99.90
4596;DHT22;2310;49.978;8.742;2024-01-06T13:22:47;11.10;99.90
4596;DHT22;2310;49.978;8.742;2024-01-06T13:26:49;11.30;99.90
4596;DHT22;2310;49.978;8.742;2024-01-06T13:30:51;11.20;99.90
4596;DHT22;2310;49.978;8.742;2024-01-06T13:34:53;11.20;99.90
4596;DHT22;2310;49.978;8.742;2024-01-06T13:38:57;11.20;99.90
4596;DHT22;2310;49.978;8.742;2024-01-06T13:43:00;11.10;99.90
4596;DHT22;2310;49.978;8.742;2024-01-06T13:47:01;11.10;99.90
4596;DHT22;2310;49.978;8.742;2024-01-06T13:51:06;11.10;99.90
4596;DHT22;2310;49.978;8.742;2024-01-06T13:55:08;11.00;99.90
4596;DHT22;2310;49.978;8.742;2024-01-06T13:59:10;11.00;99.90
4596;DHT22;2310;49.978;8.742;2024-01-06T14:03:11;11.10;99.90
4596;DHT22;2310;49.978;8.742;2024-01-06T14:07:13;11.00;99.90
4596;DHT22;2310;49.978;8.742;2024-01-06T14:11:14;10.90;99.90
4596;DHT22;2310;49.978;8.742;2024-01-06T14:15:17;10.80;99.90
4596;DHT22;2310;49.978;8.742;2024-01-06T14:19:18;10.80;99.90
4596;DHT22;2310;49.978;8.742;2024-01-06T14:23:21;10.80;99.90
4596;DHT22;2310;49.978;8.742;2024-01-06T14:27:23;10.80;99.90
4596;DHT22;2310;49.978;8.742;2024-01-06T14:31:25;10.90;99.90
4596;DHT22;2310;49.978;8.742;2024-01-06T14:35:28;10.80;99.90
4596;DHT22;2310;49.978;8.742;2024-01-06T14:39:29;10.70;99.90
4596;DHT22;2310;49.978;8.742;2024-01-06T14:43:31;10.80;99.90
4596;DHT22;2310;49.978;8.742;2024-01-06T14:47:32;10.70;99.90
4596;DHT22;2310;49.978;8.742;2024-01-06T14:51:33;10.70;99.90
4596;DHT22;2310;49.978;8.742;2024-01-06T14:55:35;10.70;99.90
4596;DHT22;2310;49.978;8.742;2024-01-06T14:59:36;10.60;99.90
4596;DHT22;2310;49.978;8.742;2024-01-06T15:03:38;10.60;99.90
4596;DHT22;2310;49.978;8.742;2024-01-06T15:07:41;10.50;99.90
4596;DHT22;2310;49.978;8.742;2024-01-06T15:11:42;10.60;99.90
4596;DHT22;2310;49.978;8.742;2024-01-06T15:15:43;10.60;99.90
4596;DHT22;2310;49.978;8.742;2024-01-06T15:19:46;10.60;99.90
4596;DHT22;2310;49.978;8.742;2024-01-06T15:23:48;10.60;99.90
4596;DHT22;2310;49.978;8.742;2024-01-06T15:27:50;10.60;99.90
4596;DHT22;2310;49.978;8.742;2024-01-06T15:31:51;10.50;99.90
4596;DHT22;2310;49.978;8.742;2024-01-06T15:35:54;10.50;99.90
4596;DHT22;2310;49.978;8.742;2024-01-06T15:39:56;10.40;99.90
4596;DHT22;2310;49.978;8.742;2024-01-06T15:43:58;10.40;99.90
4596;DHT22;2310;49.978;8.742;2024-01-06T15:47:59;10.40;99.90
4596;DHT22;2310;49.978;8.742;2024-01-06T15:52:01;10.40;99.90
4596;DHT22;2310;49.978;8.742;2024-01-06T15:56:04;10.40;99.90
4596;DHT22;2310;49.978;8.742;2024-01-06T16:00:08;10.40;99.90
4596;DHT22;2310;49.978;8.742;2024-01-06T16:04:09;10.40;99.90
4596;DHT22;2310;49.978;8.742;2024-01-06T16:08:11;10.20;99.90
4596;DHT22;2310;49.978;8.742;2024-01-06T16:12:14;9.90;99.90
4596;DHT22;2310;49.978;8.742;2024-01-06T16:16:18;9.90;99.90
4596;DHT22;2310;49.978;8.742;2024-01-06T16:20:21;9.70;99.90
4596;DHT22;2310;49.978;8.742;2024-01-06T16:24:23;9.50;99.90
4596;DHT22;2310;49.978;8.742;2024-01-06T16:28:29;9.40;99.90
4596;DHT22;2310;49.978;8.742;2024-01-06T16:32:30;9.20;99.90
4596;DHT22;2310;49.978;8.742;2024-01-06T16:36:32;9.00;99.90
4596;DHT22;2310;49.978;8.742;2024-01-06T16:40:35;9.00;99.90
4596;DHT22;2310;49.978;8.742;2024-01-06T16:44:36;8.90;99.90
4596;DHT22;2310;49.978;8.742;2024-01-06T16:48:37;9.00;99.90
4596;DHT22;2310;49.978;8.742;2024-01-06T16:52:39;8.80;99.90
4596;DHT22;2310;49.978;8.742;2024-01-06T16:56:41;8.70;99.90
4596;DHT22;2310;49.978;8.742;2024-01-06T17:00:45;8.80;99.90
4596;DHT22;2310;49.978;8.742;2024-01-06T17:04:46;8.60;99.90
4596;DHT22;2310;49.978;8.742;2024-01-06T17:08:48;8.40;99.90
4596;DHT22;2310;49.978;8.742;2024-01-06T17:12:49;8.40;99.90
4596;DHT22;2310;49.978;8.742;2024-01-06T17:16:51;8.60;99.90
4596;DHT22;2310;49.978;8.742;2024-01-06T17:20:52;8.70;99.90
4596;DHT22;2310;49.978;8.742;2024-01-06T17:24:54;8.70;99.90
4596;DHT22;2310;49.978;8.742;2024-01-06T17:28:55;8.90;99.90
4596;DHT22;2310;49.978;8.742;2024-01-06T17:32:57;8.70;99.90
4596;DHT22;2310;49.978;8.742;2024-01-06T17:36:59;8.60;99.90
4596;DHT22;2310;49.978;8.742;2024-01-06T17:41:01;8.80;99.90
4596;DHT22;2310;49.978;8.742;2024-01-06T17:45:03;8.80;99.90
4596;DHT22;2310;49.978;8.742;2024-01-06T17:49:04;8.80;99.90
4596;DHT22;2310;49.978;8.742;2024-01-06T17:53:07;8.60;99.90
4596;DHT22;2310;49.978;8.742;2024-01-06T17:57:09;8.70;99.90
4596;DHT22;2310;49.978;8.742;2024-01-06T18:01:12;8.70;99.90
4596;DHT22;2310;49.978;8.742;2024-01-06T18:05:16;8.60;99.90
4596;DHT22;2310;49.978;8.742;2024-01-06T18:09:18;8.60;99.90
4596;DHT22;2310;49.978;8.742;2024-01-06T18:13:20;8.70;99.90
4596;DHT22;2310;49.978;8.742;2024-01-06T18:17:22;8.60;99.90
4596;DHT22;2310;49.978;8.742;2024-01-06T18:21:25;8.60;99.90
4596;DHT22;2310;49.978;8.742;2024-01-06T18:25:26;8.60;99.90
4596;DHT22;2310;49.978;8.742;2024-01-06T18:29:28;8.80;99.90
4596;DHT22;2310;49.978;8.742;2024-01-06T18:33:29;8.60;99.90
4596;DHT22;2310;49.978;8.742;2024-01-06T18:37:33;8.50;99.90
4596;DHT22;2310;49.978;8.742;2024-01-06T18:41:35;8.50;99.90
4596;DHT22;2310;49.978;8.742;2024-01-06T18:45:36;8.50;99.90
4596;DHT22;2310;49.978;8.742;2024-01-06T18:49:38;8.50;99.90
4596;DHT22;2310;49.978;8.742;2024-01-06T18:53:39;8.50;99.90
4596;DHT22;2310;49.978;8.742;2024-01-06T18:57:43;8.50;99.90
4596;DHT22;2310;49.978;8.742;2024-01-06T19:01:45;8.50;99.90
4596;DHT22;2310;49.978;8.742;2024-01-06T19:05:47;8.40;99.90
4596;DHT22;2310;49.978;8.742;2024-01-06T19:09:48;8.50;99.90
4596;DHT22;2310;49.978;8.742;2024-01-06T19:13:50;8.40;99.90
4596;DHT22;2310;49.978;8.742;2024-01-06T19:17:51;8.40;99.90
4596;DHT22;2310;49.978;8.742;2024-01-06T19:21:53;8.60;99.90
4596;DHT22;2310;49.978;8.742;2024-01-06T19:25:55;8.60;99.90
4596;DHT22;2310;49.978;8.742;2024-01-06T19:29:59;8.60;99.90
4596;DHT22;2310;49.978;8.742;2024-01-06T19:34:03;8.50;99.90
4596;DHT22;2310;49.978;8.742;2024-01-06T19:38:05;8.40;99.90
4596;DHT22;2310;49.978;8.742;2024-01-06T19:42:09;8.40;99.90
4596;DHT22;2310;49.978;8.742;2024-01-06T19:46:11;8.30;99.90
4596;DHT22;2310;49.978;8.742;2024-01-06T19:50:13;8.40;99.90
4596;DHT22;2310;49.978;8.742;2024-01-06T19:54:14;8.50;99.90
4596;DHT22;2310;49.978;8.742;2024-01-06T19:58:17;8.40;99.90
4596;DHT22;2310;49.978;8.742;2024-01-06T20:02:19;8.60;99.90
4596;DHT22;2310;49.978;8.742;2024-01-06T20:06:20;8.70;99.90
4596;DHT22;2310;49.978;8.742;2024-01-06T20:10:22;8.60;99.90
4596;DHT22;2310;49.978;8.742;2024-01-06T20:14:23;8.50;99.90
4596;DHT22;2310;49.978;8.742;2024-01-06T20:18:24;8.60;99.90
4596;DHT22;2310;49.978;8.742;2024-01-06T20:22:30;8.60;99.90
4596;DHT22;2310;49.978;8.742;2024-01-06T20:26:32;8.70;99.90
4596;DHT22;2310;49.978;8.742;2024-01-06T20:30:34;8.70;99.90
4596;DHT22;2310;49.978;8.742;2024-01-06T20:34:37;8.70;99.90
4596;DHT22;2310;49.978;8.742;2024-01-06T20:38:40;8.80;99.90
4596;DHT22;2310;49.978;8.742;2024-01-06T20:42:42;8.70;99.90
4596;DHT22;2310;49.978;8.742;2024-01-06T20:46:44;8.60;99.90
4596;DHT22;2310;49.978;8.742;2024-01-06T20:50:45;8.70;99.90
4596;DHT22;2310;49.978;8.742;2024-01-06T20:54:46;8.70;99.90
4596;DHT22;2310;49.978;8.742;2024-01-06T20:58:48;8.60;99.90
4596;DHT22;2310;49.978;8.742;2024-01-06T21:02:49;8.60;99.90
4596;DHT22;2310;49.978;8.742;2024-01-06T21:06:51;8.60;99.90
4596;DHT22;2310;49.978;8.742;2024-01-06T21:10:54;8.50;99.90
4596;DHT22;2310;49.978;8.742;2024-01-06T21:14:55;8.40;99.90
4596;DHT22;2310;49.978;8.742;2024-01-06T21:18:58;8.40;99.90
4596;DHT22;2310;49.978;8.742;2024-01-06T21:22:59;8.40;99.90
4596;DHT22;2310;49.978;8.742;2024-01-06T21:27:01;8.50;99.90
4596;DHT22;2310;49.978;8.742;2024-01-06T21:31:02;8.50;99.90
4596;DHT22;2310;49.978;8.742;2024-01-06T21:35:04;8.50;99.90
4596;DHT22;2310;49.978;8.742;2024-01-06T21:39:06;8.20;99.90
4596;DHT22;2310;49.978;8.742;2024-01-06T21:43:07;8.20;99.90
4596;DHT22;2310;49.978;8.742;2024-01-06T21:47:09;8.20;99.90
4596;DHT22;2310;49.978;8.742;2024-01-06T21:51:10;8.20;99.90
4596;DHT22;2310;49.978;8.742;2024-01-06T21:55:12;8.10;99.90
4596;DHT22;2310;49.978;8.742;2024-01-06T21:59:13;8.10;99.90
4596;DHT22;2310;49.978;8.742;2024-01-06T22:03:17;8.30;99.90
4596;DHT22;2310;49.978;8.742;2024-01-06T22:07:19;8.20;99.90
4596;DHT22;2310;49.978;8.742;2024-01-06T22:11:22;8.10;99.90
4596;DHT22;2310;49.978;8.742;2024-01-06T22:15:24;8.10;99.90
4596;DHT22;2310;49.978;8.742;2024-01-06T22:19:25;8.10;99.90
4596;DHT22;2310;49.978;8.742;2024-01-06T22:23:27;8.00;99.90
4596;DHT22;2310;49.978;8.742;2024-01-06T22:27:28;8.10;99.90
4596;DHT22;2310;49.978;8.742;2024-01-06T22:31:30;7.80;99.90
4596;DHT22;2310;49.978;8.742;2024-01-06T22:35:31;7.90;99.90
4596;DHT22;2310;49.978;8.742;2024-01-06T22:39:34;7.80;99.90
4596;DHT22;2310;49.978;8.742;2024-01-06T22:43:35;7.70;99.90
4596;DHT22;2310;49.978;8.742;2024-01-06T22:47:38;7.80;99.90
4596;DHT22;2310;49.978;8.742;2024-01-06T22:51:41;7.80;99.90
4596;DHT22;2310;49.978;8.742;2024-01-06T22:55:43;7.60;99.90
4596;DHT22;2310;49.978;8.742;2024-01-06T22:59:44;7.40;99.90
4596;DHT22;2310;49.978;8.742;2024-01-06T23:03:45;7.40;99.90
4596;DHT22;2310;49.978;8.742;2024-01-06T23:07:47;7.30;99.90
4596;DHT22;2310;49.978;8.742;2024-01-06T23:11:49;7.20;99.90
4596;DHT22;2310;49.978;8.742;2024-01-06T23:15:50;7.30;99.90
4596;DHT22;2310;49.978;8.742;2024-01-06T23:19:54;7.30;99.90
4596;DHT22;2310;49.978;8.742;2024-01-06T23:23:55;7.30;99.90
4596;DHT22;2310;49.978;8.742;2024-01-06T23:27:57;7.30;99.90
4596;DHT22;2310;49.978;8.742;2024-01-06T23:31:59;7.20;99.90
4596;DHT22;2310;49.978;8.742;2024-01-06T23:36:00;7.20;99.90
4596;DHT22;2310;49.978;8.742;2024-01-06T23:40:01;7.20;99.90
4596;DHT22;2310;49.978;8.742;2024-01-06T23:44:03;7.10;99.90
4596;DHT22;2310;49.978;8.742;2024-01-06T23:48:05;7.00;99.90
4596;DHT22;2310;49.978;8.742;2024-01-06T23:52:06;7.00;99.90
4596;DHT22;2310;49.978;8.742;2024-01-06T23:56:07;7.10;99.90
